createdAt,value
2023-05-21T00:00:12.038Z,20.80
2023-05-21T00:02:39.949Z,19.33
2023-05-21T00:05:13.779Z,17.77
2023-05-21T00:07:41.847Z,18.33
2023-05-21T00:10:09.075Z,17.95
2023-05-21T00:12:36.035Z,17.60
2023-05-21T00:15:03.318Z,19.17
2023-05-21T00:17:30.331Z,19.10
2023-05-21T00:19:57.158Z,20.58
2023-05-21T00:22:24.211Z,22.23
2023-05-21T00:24:51.116Z,22.02
2023-05-21T00:27:18.054Z,21.05
2023-05-21T00:29:44.940Z,20.33
2023-05-21T00:32:11.894Z,22.75
2023-05-21T00:34:39.357Z,23.20
2023-05-21T00:37:06.254Z,20.98
2023-05-21T00:39:33.081Z,20.55
2023-05-21T00:42:00.484Z,22.08
2023-05-21T00:44:28.275Z,22.77
2023-05-21T00:46:55.226Z,21.67
2023-05-21T00:49:24.557Z,21.00
2023-05-21T00:51:52.012Z,21.55
2023-05-21T00:54:19.057Z,22.35
2023-05-21T00:56:47.095Z,22.77
2023-05-21T00:59:16.616Z,22.80
2023-05-21T01:01:46.813Z,23.08
2023-05-21T01:04:13.753Z,23.13
2023-05-21T01:06:40.524Z,21.88
2023-05-21T01:09:07.461Z,22.17
2023-05-21T01:11:44.604Z,23.52
2023-05-21T01:14:13.475Z,21.73
2023-05-21T01:16:43.579Z,22.38
2023-05-21T01:19:17.576Z,21.50
2023-05-21T01:21:47.288Z,23.00
2023-05-21T01:24:15.578Z,22.80
2023-05-21T01:26:44.276Z,22.23
2023-05-21T01:29:14.213Z,23.48
2023-05-21T01:31:48.428Z,22.75
2023-05-21T01:34:18.247Z,21.50
2023-05-21T01:36:54.355Z,20.73
2023-05-21T01:39:28.017Z,20.90
2023-05-21T01:41:56.415Z,22.25
2023-05-21T01:44:25.570Z,21.63
2023-05-21T01:46:54.665Z,20.92
2023-05-21T01:49:22.859Z,21.52
2023-05-21T01:51:50.235Z,20.70
2023-05-21T01:54:17.077Z,20.13
2023-05-21T01:56:43.874Z,20.10
2023-05-21T01:59:10.915Z,19.95
2023-05-21T02:01:37.763Z,19.65
2023-05-21T02:04:04.683Z,19.58
2023-05-21T02:06:31.956Z,20.25
2023-05-21T02:08:59.699Z,19.33
2023-05-21T02:11:27.199Z,19.60
2023-05-21T02:13:54.552Z,19.02
2023-05-21T02:16:22.556Z,19.30
2023-05-21T02:18:53.650Z,20.55
2023-05-21T02:21:20.814Z,22.50
2023-05-21T02:23:47.634Z,23.35
2023-05-21T02:26:14.466Z,20.83
2023-05-21T02:28:41.321Z,21.85
2023-05-21T02:31:08.162Z,20.10
2023-05-21T02:33:35.020Z,20.80
2023-05-21T02:36:01.808Z,21.73
2023-05-21T02:38:28.601Z,21.05
2023-05-21T02:40:55.791Z,21.92
2023-05-21T02:43:22.603Z,22.13
2023-05-21T02:45:51.463Z,21.30
2023-05-21T02:48:18.381Z,21.85
2023-05-21T02:50:45.166Z,22.58
2023-05-21T02:53:11.946Z,21.80
2023-05-21T02:55:38.895Z,21.05
2023-05-21T02:58:05.852Z,19.20
2023-05-21T03:00:32.799Z,22.13
2023-05-21T03:02:59.856Z,20.48
2023-05-21T03:05:26.754Z,21.92
2023-05-21T03:07:53.629Z,21.58
2023-05-21T03:10:20.675Z,20.02
2023-05-21T03:12:47.470Z,19.85
2023-05-21T03:15:14.957Z,21.20
2023-05-21T03:17:42.401Z,20.05
2023-05-21T03:20:16.125Z,18.60
2023-05-21T03:22:44.588Z,18.73
2023-05-21T03:25:12.328Z,19.50
2023-05-21T03:27:39.555Z,19.25
2023-05-21T03:30:07.032Z,19.40
2023-05-21T03:32:33.994Z,19.17
2023-05-21T03:35:00.813Z,19.23
2023-05-21T03:37:27.579Z,18.92
2023-05-21T03:39:54.378Z,18.33
2023-05-21T03:42:21.248Z,18.35
2023-05-21T03:44:48.045Z,17.42
2023-05-21T03:47:14.966Z,18.50
2023-05-21T03:49:41.780Z,16.75
2023-05-21T03:52:08.600Z,16.85
2023-05-21T03:54:35.943Z,17.60
2023-05-21T03:57:02.735Z,18.48
2023-05-21T03:59:29.554Z,18.63
2023-05-21T04:01:56.354Z,17.92
2023-05-21T04:04:23.288Z,19.75
2023-05-21T04:06:51.310Z,17.73
2023-05-21T04:09:18.178Z,17.92
2023-05-21T04:11:45.186Z,18.38
2023-05-21T04:14:12.021Z,18.35
2023-05-21T04:16:38.879Z,20.15
2023-05-21T04:19:06.761Z,18.75
2023-05-21T04:21:33.777Z,19.20
2023-05-21T04:24:00.964Z,18.73
2023-05-21T04:26:28.100Z,19.70
2023-05-21T04:28:55.534Z,19.60
2023-05-21T04:31:23.294Z,20.38
2023-05-21T04:33:50.794Z,20.17
2023-05-21T04:36:17.595Z,20.40
2023-05-21T04:38:44.437Z,20.40
2023-05-21T04:41:11.224Z,21.00
2023-05-21T04:43:38.385Z,21.70
2023-05-21T04:46:06.051Z,19.55
2023-05-21T04:48:33.208Z,21.05
2023-05-21T04:51:00.002Z,21.52
2023-05-21T04:53:26.889Z,21.60
2023-05-21T04:55:53.691Z,21.10
2023-05-21T04:58:20.563Z,23.33
2023-05-21T05:00:50.922Z,23.17
2023-05-21T05:03:18.334Z,24.25
2023-05-21T05:05:47.534Z,25.73
2023-05-21T05:08:15.940Z,24.15
2023-05-21T05:10:43.139Z,23.77
2023-05-21T05:13:09.979Z,25.33
2023-05-21T05:15:37.157Z,26.00
2023-05-21T05:18:04.325Z,26.17
2023-05-21T05:20:31.178Z,27.02
2023-05-21T05:22:58.034Z,25.17
2023-05-21T05:25:24.946Z,25.60
2023-05-21T05:27:51.743Z,25.10
2023-05-21T05:30:18.608Z,25.85
2023-05-21T05:32:45.802Z,23.95
2023-05-21T05:35:13.010Z,25.58
2023-05-21T05:37:39.813Z,24.92
2023-05-21T05:40:08.144Z,24.08
2023-05-21T05:42:35.039Z,24.20
2023-05-21T05:45:01.899Z,27.35
2023-05-21T05:47:28.709Z,18.05
2023-05-21T05:49:55.532Z,17.45
2023-05-21T05:52:22.440Z,15.45
2023-05-21T05:54:49.241Z,15.85
2023-05-21T05:57:16.062Z,16.15
2023-05-21T05:59:42.905Z,14.48
2023-05-21T06:02:09.891Z,15.38
2023-05-21T06:04:36.726Z,15.18
2023-05-21T06:07:03.664Z,15.45
2023-05-21T06:09:30.509Z,14.27
2023-05-21T06:11:57.330Z,15.13
2023-05-21T06:14:24.104Z,15.38
2023-05-21T06:16:50.998Z,14.90
2023-05-21T06:19:17.900Z,15.05
2023-05-21T06:21:44.767Z,15.35
2023-05-21T06:24:11.549Z,14.60
2023-05-21T06:26:38.338Z,14.63
2023-05-21T06:29:05.235Z,15.15
2023-05-21T06:31:33.198Z,15.15
2023-05-21T06:34:01.044Z,15.35
2023-05-21T06:36:30.151Z,13.80
2023-05-21T06:38:57.369Z,15.07
2023-05-21T06:41:24.320Z,15.60
2023-05-21T06:43:51.525Z,15.88
2023-05-21T06:46:18.489Z,15.43
2023-05-21T06:48:46.470Z,15.10
2023-05-21T06:51:13.434Z,15.50
2023-05-21T06:53:40.269Z,14.80
2023-05-21T06:56:07.383Z,14.65
2023-05-21T06:58:34.246Z,15.60
2023-05-21T07:01:01.880Z,14.32
2023-05-21T07:03:43.199Z,14.25
2023-05-21T07:06:10.093Z,14.57
2023-05-21T07:08:37.052Z,14.05
2023-05-21T07:11:03.910Z,15.82
2023-05-21T07:13:31.138Z,14.07
2023-05-21T07:15:57.985Z,13.13
2023-05-21T07:18:24.802Z,14.48
2023-05-21T07:20:51.666Z,14.45
2023-05-21T07:23:18.531Z,14.68
2023-05-21T07:25:45.364Z,14.43
2023-05-21T07:28:12.206Z,14.43
2023-05-21T07:30:39.037Z,14.07
2023-05-21T07:33:05.883Z,14.70
2023-05-21T07:35:32.719Z,13.43
2023-05-21T07:37:59.554Z,13.60
2023-05-21T07:40:26.473Z,13.63
2023-05-21T07:43:02.646Z,13.30
2023-05-21T07:45:29.548Z,13.98
2023-05-21T07:47:56.570Z,13.25
2023-05-21T07:50:23.474Z,13.40
2023-05-21T07:52:50.353Z,14.20
2023-05-21T07:55:17.268Z,12.82
2023-05-21T07:57:45.440Z,13.65
2023-05-21T08:00:15.493Z,12.85
2023-05-21T08:02:42.634Z,12.02
2023-05-21T08:05:10.587Z,11.82
2023-05-21T08:07:38.558Z,11.48
2023-05-21T08:10:06.053Z,12.52
2023-05-21T08:12:33.512Z,11.68
2023-05-21T08:15:00.614Z,9.73
2023-05-21T08:17:28.724Z,9.65
2023-05-21T08:19:55.846Z,9.90
2023-05-21T08:22:22.989Z,9.98
2023-05-21T08:24:49.804Z,10.70
2023-05-21T08:27:16.646Z,9.40
2023-05-21T08:29:43.646Z,9.65
2023-05-21T08:32:10.607Z,11.35
2023-05-21T08:34:37.474Z,9.70
2023-05-21T08:37:04.550Z,10.15
2023-05-21T08:39:31.391Z,10.80
2023-05-21T08:42:11.568Z,10.88
2023-05-21T08:44:46.556Z,10.27
2023-05-21T08:47:16.708Z,11.18
2023-05-21T08:49:45.541Z,10.48
2023-05-21T08:52:13.262Z,9.98
2023-05-21T08:54:40.130Z,11.20
2023-05-21T08:57:07.609Z,10.30
2023-05-21T08:59:35.986Z,10.68
2023-05-21T09:02:04.604Z,9.95
2023-05-21T09:04:32.677Z,10.95
2023-05-21T09:07:03.023Z,10.05
2023-05-21T09:09:37.568Z,9.27
2023-05-21T09:12:05.299Z,10.18
2023-05-21T09:14:32.497Z,9.75
2023-05-21T09:16:59.517Z,9.43
2023-05-21T09:19:26.591Z,9.73
2023-05-21T09:21:53.485Z,9.05
2023-05-21T09:24:23.136Z,9.25
2023-05-21T09:26:50.124Z,8.65
2023-05-21T09:29:16.943Z,9.70
2023-05-21T09:31:47.765Z,9.73
2023-05-21T09:34:14.823Z,9.07
2023-05-21T09:36:41.785Z,10.23
2023-05-21T09:39:08.830Z,9.23
2023-05-21T09:41:37.016Z,7.72
2023-05-21T09:44:04.775Z,7.25
2023-05-21T09:46:41.830Z,7.07
2023-05-21T09:49:24.896Z,7.63
2023-05-21T09:51:58.291Z,7.75
2023-05-21T09:54:26.551Z,8.52
2023-05-21T09:56:53.721Z,7.85
2023-05-21T09:59:20.977Z,8.10
2023-05-21T10:01:51.858Z,8.18
2023-05-21T10:04:19.734Z,8.30
2023-05-21T10:06:48.089Z,8.30
2023-05-21T10:09:18.801Z,8.18
2023-05-21T10:11:47.193Z,8.63
2023-05-21T10:14:21.018Z,7.88
2023-05-21T10:16:48.477Z,8.68
2023-05-21T10:19:16.976Z,8.77
2023-05-21T10:21:45.015Z,8.25
2023-05-21T10:24:12.998Z,8.75
2023-05-21T10:26:41.675Z,8.10
2023-05-21T10:29:09.071Z,7.93
2023-05-21T10:31:38.794Z,8.25
2023-05-21T10:34:06.429Z,8.55
2023-05-21T10:36:34.313Z,8.07
2023-05-21T10:39:03.069Z,8.40
2023-05-21T10:41:37.145Z,8.60
2023-05-21T10:44:18.967Z,8.38
2023-05-21T10:47:10.978Z,7.55
2023-05-21T10:49:37.736Z,7.78
2023-05-21T10:52:34.258Z,8.30
2023-05-21T10:55:05.147Z,8.77
2023-05-21T10:57:47.141Z,8.45
2023-05-21T11:00:16.862Z,9.15
2023-05-21T11:02:45.773Z,9.93
2023-05-21T11:05:12.792Z,9.00
2023-05-21T11:07:56.306Z,8.63
2023-05-21T11:10:40.863Z,8.48
2023-05-21T11:13:12.958Z,8.30
2023-05-21T11:16:02.830Z,8.20
2023-05-21T11:18:35.735Z,8.95
2023-05-21T11:21:16.277Z,8.25
2023-05-21T11:23:58.816Z,7.90
2023-05-21T11:26:52.619Z,7.93
2023-05-21T11:29:20.060Z,8.23
2023-05-21T11:32:01.338Z,8.00
2023-05-21T11:34:40.846Z,8.68
2023-05-21T11:37:17.033Z,8.30
2023-05-21T11:39:44.969Z,8.15
2023-05-21T11:42:11.843Z,8.65
2023-05-21T11:44:42.466Z,8.10
2023-05-21T11:47:17.807Z,8.45
2023-05-21T11:49:46.011Z,8.80
2023-05-21T11:52:14.113Z,8.32
2023-05-21T11:54:48.630Z,8.48
2023-05-21T11:57:17.315Z,8.45
2023-05-21T11:59:53.702Z,8.25
2023-05-21T12:02:22.234Z,8.65
2023-05-21T12:04:50.787Z,8.88
2023-05-21T12:07:22.014Z,8.50
2023-05-21T12:09:50.465Z,8.45
2023-05-21T12:12:21.622Z,8.75
2023-05-21T12:14:50.607Z,8.75
2023-05-21T12:17:19.218Z,8.82
2023-05-21T12:19:47.741Z,8.90
2023-05-21T12:22:17.735Z,8.15
2023-05-21T12:24:46.887Z,8.60
2023-05-21T12:27:16.760Z,8.60
2023-05-21T12:29:46.683Z,8.55
2023-05-21T12:32:14.954Z,8.57
2023-05-21T12:34:46.562Z,8.40
2023-05-21T12:39:49.178Z,8.00
2023-05-21T12:42:16.525Z,8.57
2023-05-21T12:44:52.174Z,9.90
2023-05-21T12:47:19.502Z,8.48
2023-05-21T12:49:48.259Z,8.38
2023-05-21T12:52:19.956Z,8.55
2023-05-21T12:54:51.392Z,8.15
2023-05-21T12:57:26.042Z,9.40
2023-05-21T13:00:00.420Z,8.20
2023-05-21T13:02:30.183Z,8.30
2023-05-21T13:05:04.055Z,8.50
2023-05-21T13:07:35.924Z,8.48
2023-05-21T13:10:03.298Z,8.70
2023-05-21T13:12:32.380Z,8.73
2023-05-21T13:15:01.083Z,8.13
2023-05-21T13:17:28.248Z,8.63
2023-05-21T13:20:09.164Z,7.57
2023-05-21T13:22:39.235Z,8.45
2023-05-21T13:25:07.262Z,9.00
2023-05-21T13:27:34.226Z,8.00
2023-05-21T13:30:01.618Z,8.95
2023-05-21T13:32:28.587Z,9.00
2023-05-21T13:34:55.475Z,8.80
2023-05-21T13:37:22.324Z,8.50
2023-05-21T13:39:49.248Z,8.75
2023-05-21T13:42:16.438Z,8.60
2023-05-21T13:44:43.594Z,8.40
2023-05-21T13:47:12.047Z,9.05
2023-05-21T13:49:39.647Z,8.65
2023-05-21T13:52:07.956Z,8.55
2023-05-21T13:54:34.928Z,8.57
2023-05-21T13:57:02.298Z,9.18
2023-05-21T13:59:31.266Z,8.85
2023-05-21T14:01:59.638Z,8.23
2023-05-21T14:04:26.572Z,7.90
2023-05-21T14:06:53.599Z,7.80
2023-05-21T14:09:20.829Z,7.70
2023-05-21T14:11:47.642Z,8.13
2023-05-21T14:14:18.903Z,8.50
2023-05-21T14:16:47.176Z,7.30
2023-05-21T14:19:14.518Z,7.13
2023-05-21T14:21:41.901Z,7.63
2023-05-21T14:24:08.719Z,7.30
2023-05-21T14:26:37.469Z,7.32
2023-05-21T14:29:04.303Z,7.50
2023-05-21T14:31:31.302Z,7.38
2023-05-21T14:33:58.253Z,7.82
2023-05-21T14:36:25.082Z,7.30
2023-05-21T14:38:51.894Z,7.22
2023-05-21T14:41:18.716Z,7.18
2023-05-21T14:43:45.607Z,7.80
2023-05-21T14:46:12.448Z,7.40
2023-05-21T14:48:39.303Z,7.45
2023-05-21T14:51:06.377Z,7.18
2023-05-21T14:53:33.210Z,6.80
2023-05-21T14:56:00.029Z,6.85
2023-05-21T14:58:26.907Z,7.95
2023-05-21T15:00:53.708Z,7.97
2023-05-21T15:03:20.682Z,7.38
2023-05-21T15:05:47.512Z,8.02
2023-05-21T15:08:14.552Z,7.93
2023-05-21T15:10:41.371Z,8.02
2023-05-21T15:13:08.204Z,8.40
2023-05-21T15:15:35.866Z,8.18
2023-05-21T15:18:03.065Z,8.10
2023-05-21T15:20:29.993Z,8.45
2023-05-21T15:23:15.446Z,8.57
2023-05-21T15:25:43.961Z,8.48
2023-05-21T15:28:12.081Z,8.88
2023-05-21T15:30:39.120Z,8.40
2023-05-21T15:33:06.228Z,8.52
2023-05-21T15:35:33.335Z,9.40
2023-05-21T15:38:00.388Z,8.50
2023-05-21T15:40:27.435Z,9.82
2023-05-21T15:42:54.505Z,9.50
2023-05-21T15:45:21.354Z,9.38
2023-05-21T15:47:48.220Z,9.43
2023-05-21T15:50:15.136Z,9.20
2023-05-21T15:52:42.666Z,9.23
2023-05-21T15:55:09.830Z,9.68
2023-05-21T15:57:36.687Z,9.23
2023-05-21T16:00:04.943Z,9.23
2023-05-21T16:02:31.997Z,8.68
2023-05-21T16:04:58.967Z,8.25
2023-05-21T16:07:25.882Z,9.02
2023-05-21T16:09:52.743Z,9.32
2023-05-21T16:12:19.594Z,8.88
2023-05-21T16:14:50.018Z,8.45
2023-05-21T16:17:18.204Z,8.90
2023-05-21T16:19:45.173Z,7.97
2023-05-21T16:22:12.009Z,8.43
2023-05-21T16:24:38.921Z,8.88
2023-05-21T16:27:05.899Z,7.68
2023-05-21T16:29:32.738Z,7.85
2023-05-21T16:31:59.621Z,8.05
2023-05-21T16:34:27.056Z,8.13
2023-05-21T16:36:53.868Z,8.45
2023-05-21T16:39:20.754Z,7.97
2023-05-21T16:41:47.700Z,7.38
2023-05-21T16:44:14.816Z,7.75
2023-05-21T16:46:41.781Z,8.07
2023-05-21T16:49:08.709Z,7.38
2023-05-21T16:51:35.518Z,7.03
2023-05-21T16:54:04.209Z,7.97
2023-05-21T16:56:31.431Z,7.95
2023-05-21T16:58:58.284Z,8.00
2023-05-21T17:01:25.361Z,7.65
2023-05-21T17:03:52.720Z,8.05
2023-05-21T17:06:19.984Z,8.23
2023-05-21T17:08:47.306Z,8.35
2023-05-21T17:11:14.154Z,8.23
2023-05-21T17:13:41.173Z,7.95
2023-05-21T17:16:08.157Z,8.30
2023-05-21T17:18:35.063Z,8.77
2023-05-21T17:21:01.941Z,8.77
2023-05-21T17:23:28.820Z,7.97
2023-05-21T17:25:55.651Z,8.27
2023-05-21T17:28:22.510Z,8.30
2023-05-21T17:30:49.902Z,7.97
2023-05-21T17:33:16.991Z,7.80
2023-05-21T17:35:44.024Z,9.48
2023-05-21T17:38:10.912Z,8.85
2023-05-21T17:40:37.934Z,9.00
2023-05-21T17:43:05.367Z,8.25
2023-05-21T17:45:32.409Z,9.20
2023-05-21T17:48:00.504Z,8.93
2023-05-21T17:50:29.155Z,8.63
2023-05-21T17:52:55.955Z,8.77
2023-05-21T17:55:22.842Z,8.70
2023-05-21T17:57:49.744Z,8.93
2023-05-21T18:00:16.795Z,8.85
2023-05-21T18:02:43.725Z,9.50
2023-05-21T18:05:10.621Z,8.85
2023-05-21T18:07:38.363Z,10.23
2023-05-21T18:10:05.939Z,10.13
2023-05-21T18:12:32.850Z,11.80
2023-05-21T18:14:59.729Z,9.98
2023-05-21T18:17:26.551Z,10.75
2023-05-21T18:19:53.490Z,11.85
2023-05-21T18:22:20.302Z,11.57
2023-05-21T18:24:47.170Z,12.52
2023-05-21T18:27:13.981Z,12.45
2023-05-21T18:29:40.995Z,11.48
2023-05-21T18:32:28.286Z,12.68
2023-05-21T18:34:55.305Z,17.88
2023-05-21T18:37:22.124Z,15.27
2023-05-21T18:39:49.307Z,14.38
2023-05-21T18:42:16.155Z,12.30
2023-05-21T18:44:45.857Z,12.77
2023-05-21T18:47:13.651Z,13.60
2023-05-21T18:49:40.493Z,12.98
2023-05-21T18:52:07.745Z,12.50
2023-05-21T18:54:34.578Z,11.07
2023-05-21T18:57:01.393Z,11.07
2023-05-21T18:59:29.051Z,9.95
2023-05-21T19:01:55.984Z,11.07
2023-05-21T19:04:22.967Z,11.27
2023-05-21T19:06:49.878Z,11.10
2023-05-21T19:09:17.048Z,10.55
2023-05-21T19:11:44.029Z,10.65
2023-05-21T19:14:10.965Z,10.32
2023-05-21T19:16:37.906Z,10.23
2023-05-21T19:19:06.030Z,10.48
2023-05-21T19:21:58.894Z,10.93
2023-05-21T19:24:26.196Z,10.35
2023-05-21T19:26:53.028Z,11.25
2023-05-21T19:29:19.834Z,10.75
2023-05-21T19:31:46.796Z,11.50
2023-05-21T19:34:13.657Z,11.15
2023-05-21T19:36:52.115Z,10.98
2023-05-21T19:39:19.607Z,11.18
2023-05-21T19:41:46.543Z,12.10
2023-05-21T19:44:13.403Z,11.93
2023-05-21T19:46:40.320Z,12.23
2023-05-21T19:49:10.482Z,13.00
2023-05-21T19:51:37.312Z,12.05
2023-05-21T19:54:04.207Z,11.55
2023-05-21T19:56:31.018Z,11.43
2023-05-21T19:58:57.860Z,10.40
2023-05-21T20:01:25.404Z,11.32
2023-05-21T20:03:52.455Z,12.75
2023-05-21T20:06:20.643Z,11.52
2023-05-21T20:08:47.814Z,11.27
2023-05-21T20:11:14.707Z,11.65
2023-05-21T20:13:42.188Z,11.38
2023-05-21T20:16:10.449Z,11.70
2023-05-21T20:18:37.293Z,10.85
2023-05-21T20:21:06.163Z,12.02
2023-05-21T20:23:33.050Z,11.48
2023-05-21T20:25:59.944Z,11.75
2023-05-21T20:28:26.753Z,11.50
2023-05-21T20:30:58.095Z,11.48
2023-05-21T20:33:27.289Z,11.57
2023-05-21T20:35:54.073Z,11.63
2023-05-21T20:38:21.035Z,10.75
2023-05-21T20:40:47.977Z,11.32
2023-05-21T20:43:15.301Z,11.88
2023-05-21T20:45:43.585Z,11.63
2023-05-21T20:48:11.991Z,11.90
2023-05-21T20:50:40.829Z,12.65
2023-05-21T20:53:52.939Z,12.02
2023-05-21T20:56:29.902Z,11.35
2023-05-21T20:59:08.598Z,13.02
2023-05-21T21:01:37.846Z,12.45
2023-05-21T21:04:05.178Z,12.02
2023-05-21T21:06:32.195Z,11.65
2023-05-21T21:08:59.150Z,12.02
2023-05-21T21:11:27.147Z,12.05
2023-05-21T21:13:54.022Z,13.05
2023-05-21T21:16:20.971Z,12.68
2023-05-21T21:18:47.986Z,13.68
2023-05-21T21:21:14.956Z,12.98
2023-05-21T21:23:41.782Z,12.20
2023-05-21T21:26:08.655Z,13.00
2023-05-21T21:28:35.478Z,12.13
2023-05-21T21:31:02.629Z,12.85
2023-05-21T21:33:29.523Z,12.73
2023-05-21T21:35:56.516Z,13.27
2023-05-21T21:38:23.328Z,11.48
2023-05-21T21:40:50.188Z,12.48
2023-05-21T21:43:16.981Z,12.68
2023-05-21T21:45:43.873Z,12.98
2023-05-21T21:48:11.583Z,12.80
2023-05-21T21:50:38.666Z,12.20
2023-05-21T21:53:05.974Z,12.90
2023-05-21T21:55:33.247Z,12.35
2023-05-21T21:58:00.051Z,12.60
2023-05-21T22:00:26.959Z,12.30
2023-05-21T22:02:54.127Z,12.40
2023-05-21T22:05:21.081Z,12.77
2023-05-21T22:07:48.025Z,12.98
2023-05-21T22:10:16.170Z,13.27
2023-05-21T22:12:44.023Z,12.63
2023-05-21T22:15:28.646Z,12.90
2023-05-21T22:17:55.867Z,13.38
2023-05-21T22:20:23.103Z,13.35
2023-05-21T22:22:50.078Z,14.00
2023-05-21T22:25:17.134Z,13.57
2023-05-21T22:27:44.334Z,13.20
2023-05-21T22:30:11.640Z,12.98
2023-05-21T22:32:38.509Z,13.20
2023-05-21T22:35:06.219Z,13.63
2023-05-21T22:37:33.164Z,13.85
2023-05-21T22:40:00.098Z,13.88
2023-05-21T22:42:26.974Z,15.13
2023-05-21T22:44:53.897Z,12.95
2023-05-21T22:47:23.804Z,14.25
2023-05-21T22:49:53.469Z,13.60
2023-05-21T22:52:24.097Z,14.60
2023-05-21T22:54:54.182Z,13.80
2023-05-21T22:57:21.064Z,13.52
2023-05-21T22:59:47.856Z,13.50
2023-05-21T23:02:16.222Z,13.90
2023-05-21T23:04:44.580Z,13.90
2023-05-21T23:07:11.884Z,14.00
2023-05-21T23:09:38.730Z,13.48
2023-05-21T23:12:06.076Z,13.77
2023-05-21T23:14:33.140Z,13.98
2023-05-21T23:17:02.281Z,13.07
2023-05-21T23:19:29.832Z,14.23
2023-05-21T23:21:56.928Z,14.68
2023-05-21T23:24:23.710Z,15.23
2023-05-21T23:26:50.559Z,16.13
2023-05-21T23:29:17.534Z,15.43
2023-05-21T23:31:44.691Z,15.55
2023-05-21T23:34:12.272Z,14.23
2023-05-21T23:36:39.123Z,13.88
2023-05-21T23:39:05.985Z,13.80
2023-05-21T23:41:32.910Z,15.18
2023-05-21T23:43:59.745Z,15.15
2023-05-21T23:46:26.544Z,14.50
2023-05-21T23:48:53.359Z,15.50
2023-05-21T23:51:20.495Z,14.68
2023-05-21T23:53:47.329Z,15.95
2023-05-21T23:56:14.132Z,15.90
2023-05-21T23:58:41.506Z,14.02
